createdAt,value
2022-09-22T07:04:13.088Z,61.77
2022-09-22T07:05:17.488Z,60.87
2022-09-22T07:21:27.607Z,56.13
2022-09-22T07:22:28.960Z,55.43
2022-09-22T07:23:30.438Z,55.57
2022-09-22T07:24:31.969Z,55.45
2022-09-22T07:34:45.127Z,52.68
2022-09-22T07:35:46.554Z,51.39
2022-09-22T07:36:49.246Z,50.62
2022-09-22T07:37:56.795Z,49.98
2022-09-22T07:39:03.637Z,51.52
2022-09-22T07:49:22.150Z,50.16
2022-09-22T07:50:23.506Z,48.35
2022-09-22T07:51:26.524Z,47.67
2022-09-22T07:52:33.763Z,48.80
2022-09-22T07:53:35.964Z,49.86
2022-09-22T07:54:39.640Z,48.27
2022-09-22T07:55:41.580Z,49.00
2022-09-22T07:56:44.968Z,51.16
2022-09-22T07:57:56.445Z,52.29
2022-09-22T07:58:57.844Z,49.84
2022-09-22T07:59:59.548Z,48.10
2022-09-22T08:01:10.933Z,47.58
2022-09-22T08:02:12.389Z,47.42
2022-09-22T08:03:13.791Z,47.96
2022-09-22T08:04:18.737Z,47.33
2022-09-22T08:05:20.660Z,49.16
2022-09-22T08:06:23.821Z,49.49
2022-09-22T08:07:25.341Z,45.87
2022-09-22T08:08:27.110Z,48.65
2022-09-22T08:09:29.696Z,49.27
2022-09-22T08:10:33.802Z,52.58
2022-09-22T08:11:35.187Z,52.52
2022-09-22T08:12:37.765Z,52.04
2022-09-22T08:13:43.670Z,51.07
2022-09-22T08:14:47.160Z,49.35
2022-09-22T08:15:53.019Z,49.72
2022-09-22T08:16:54.498Z,50.57
2022-09-22T08:17:59.826Z,49.78
2022-09-22T08:19:10.657Z,47.94
2022-09-22T08:20:13.483Z,50.43
2022-09-22T08:21:19.023Z,51.06
2022-09-22T08:22:20.392Z,50.15
2022-09-22T08:23:21.776Z,48.81
2022-09-22T08:24:23.795Z,50.84
2022-09-22T08:25:25.458Z,50.62
2022-09-22T08:26:26.943Z,51.16
2022-09-22T08:27:29.742Z,49.83
2022-09-22T08:28:31.780Z,50.41
2022-09-22T08:29:33.211Z,48.80
2022-09-22T08:30:36.062Z,47.90
2022-09-22T08:31:41.078Z,48.23
2022-09-22T08:32:43.015Z,49.34
2022-09-22T08:33:44.344Z,47.59
2022-09-22T08:34:46.037Z,47.56
2022-09-22T08:35:54.472Z,49.06
2022-09-22T08:36:56.002Z,51.00
2022-09-22T08:37:57.335Z,51.97
2022-09-22T08:39:03.630Z,50.65
2022-09-22T08:40:06.211Z,49.85
2022-09-22T08:41:29.811Z,50.72
2022-09-22T08:42:34.022Z,50.92
2022-09-22T08:43:35.543Z,52.38
2022-09-22T08:45:04.290Z,51.73
2022-09-22T08:46:05.948Z,50.33
2022-09-22T08:47:16.274Z,50.00
2022-09-22T08:48:43.206Z,50.21
2022-09-22T08:50:09.964Z,52.02
2022-09-22T08:51:45.876Z,50.92
2022-09-22T08:52:54.964Z,50.24
2022-09-22T08:53:59.714Z,50.02
2022-09-22T08:55:11.218Z,52.28
2022-09-22T08:56:24.396Z,51.96
2022-09-22T08:57:36.870Z,51.97
2022-09-22T08:58:56.216Z,52.58
2022-09-22T09:00:19.046Z,52.13
2022-09-22T09:01:45.565Z,53.07
2022-09-22T09:03:17.400Z,53.92
2022-09-22T09:04:43.886Z,53.53
2022-09-22T09:06:32.991Z,54.58
2022-09-22T09:07:49.298Z,52.58
2022-09-22T09:09:09.309Z,52.82
2022-09-22T09:10:41.840Z,51.18
2022-09-22T09:30:09.932Z,45.94
2022-09-22T09:31:28.961Z,45.23
2022-09-22T09:32:40.116Z,46.04
2022-09-22T09:33:58.509Z,43.83
2022-09-22T09:35:02.219Z,40.37
2022-09-22T09:47:51.628Z,41.44
2022-09-22T09:49:16.748Z,39.07
2022-09-22T09:50:19.182Z,38.89
2022-09-22T09:51:20.567Z,40.40
2022-09-22T09:58:05.148Z,38.16
2022-09-22T10:08:50.747Z,37.21
2022-09-22T10:09:53.775Z,37.79
2022-09-22T10:10:59.298Z,37.53
2022-09-22T10:12:04.167Z,36.07
2022-09-22T10:13:05.493Z,34.43
2022-09-22T10:14:23.372Z,37.13
2022-09-22T10:15:26.418Z,36.74
2022-09-22T10:16:30.580Z,38.83
2022-09-22T10:17:42.569Z,39.49
2022-09-22T10:18:44.034Z,37.31
2022-09-22T10:19:45.461Z,34.83
2022-09-22T10:21:15.290Z,34.59
2022-09-22T10:32:03.086Z,39.07
2022-09-22T10:33:15.890Z,36.39
2022-09-22T10:34:35.357Z,38.21
2022-09-22T10:35:36.975Z,39.24
2022-09-22T10:36:45.606Z,38.41
2022-09-22T10:37:48.392Z,39.15
2022-09-22T10:38:50.014Z,38.37
2022-09-22T10:40:01.285Z,39.44
2022-09-22T10:41:08.802Z,38.48
2022-09-22T10:42:34.475Z,37.80
2022-09-22T10:44:34.653Z,36.06
2022-09-22T10:57:40.085Z,32.67
2022-09-22T10:58:44.789Z,31.41
2022-09-22T11:00:10.727Z,31.35
2022-09-22T11:01:27.313Z,31.76
2022-09-22T11:03:04.150Z,31.69
2022-09-22T11:04:27.416Z,31.52
2022-09-22T11:05:59.707Z,33.34
2022-09-22T11:07:25.967Z,32.90
2022-09-22T11:08:51.908Z,31.05
2022-09-22T11:10:17.784Z,34.80
2022-09-22T11:11:46.008Z,35.43
2022-09-22T11:33:18.974Z,37.64
2022-09-22T11:34:35.542Z,34.09
2022-09-22T11:36:04.441Z,32.61
2022-09-22T11:37:27.566Z,32.43
2022-09-22T11:57:21.444Z,38.23
2022-09-22T11:58:27.076Z,38.58
2022-09-22T11:59:50.908Z,38.57
2022-09-22T12:01:13.064Z,41.92
2022-09-22T12:16:42.062Z,38.53
2022-09-22T12:18:02.681Z,37.93
2022-09-22T12:19:42.581Z,38.94
2022-09-22T12:21:00.871Z,41.67
2022-09-22T12:37:30.056Z,36.10
2022-09-22T12:38:32.194Z,34.16
2022-09-22T12:39:46.410Z,34.23
2022-09-22T12:40:51.284Z,33.77
2022-09-22T12:42:05.698Z,37.15
2022-09-22T12:43:15.809Z,36.29
2022-09-22T12:44:30.333Z,35.13
2022-09-22T12:45:37.492Z,35.08
2022-09-22T12:46:42.908Z,34.57
2022-09-22T12:47:49.740Z,36.77
2022-09-22T12:48:51.726Z,36.75
2022-09-22T12:49:57.341Z,35.29
2022-09-22T12:58:02.563Z,30.79
2022-09-22T12:59:23.877Z,30.37
2022-09-22T13:00:41.457Z,34.25
2022-09-22T13:01:43.204Z,37.48
2022-09-22T13:02:49.009Z,35.99
2022-09-22T13:03:51.126Z,35.97
2022-09-22T13:04:55.541Z,36.50
2022-09-22T13:06:22.852Z,36.50
2022-09-22T13:07:35.094Z,35.63
2022-09-22T13:08:56.404Z,36.09
2022-09-22T13:10:22.506Z,35.53
2022-09-22T13:12:08.920Z,35.63
2022-09-22T13:13:23.753Z,35.11
2022-09-22T13:14:59.247Z,33.80
2022-09-22T13:16:05.876Z,32.59
2022-09-22T13:17:32.366Z,34.85
2022-09-22T13:18:38.881Z,33.50
2022-09-22T13:19:55.066Z,32.27
2022-09-22T13:21:01.734Z,31.42
2022-09-22T13:22:17.723Z,31.79
2022-09-22T13:23:19.105Z,34.07
2022-09-22T13:24:24.992Z,36.79
2022-09-22T13:25:31.197Z,35.94
2022-09-22T13:26:39.344Z,36.14
2022-09-22T13:27:40.665Z,36.15
2022-09-22T13:28:43.099Z,35.84
2022-09-22T13:29:57.973Z,36.18
2022-09-22T13:31:13.015Z,35.54
2022-09-22T13:32:27.089Z,36.34
2022-09-22T13:39:05.490Z,37.43
2022-09-22T13:40:10.312Z,38.39
2022-09-22T13:41:19.549Z,38.40
2022-09-22T13:42:34.520Z,38.58
2022-09-22T13:43:39.454Z,39.20
2022-09-22T13:44:44.010Z,39.90
2022-09-22T13:50:22.348Z,34.41
2022-09-22T13:51:26.017Z,36.60
2022-09-22T13:52:32.689Z,37.97
2022-09-22T13:53:34.066Z,38.67
2022-09-22T13:54:37.497Z,37.32
2022-09-22T13:55:38.896Z,35.88
2022-09-22T14:02:04.406Z,32.80
2022-09-22T14:03:05.878Z,31.83
2022-09-22T14:04:21.587Z,31.38
2022-09-22T14:05:33.031Z,30.40
2022-09-22T14:06:34.514Z,31.01
2022-09-22T14:07:45.365Z,31.78
2022-09-22T14:08:52.860Z,31.55
2022-09-22T14:09:55.821Z,31.31
2022-09-22T14:10:59.444Z,30.80
2022-09-22T14:12:01.464Z,30.38
2022-09-22T14:13:02.887Z,30.96
2022-09-22T14:14:06.745Z,32.31
2022-09-22T14:15:33.455Z,36.25
2022-09-22T14:16:37.025Z,35.53
2022-09-22T14:17:40.681Z,36.02
2022-09-22T14:18:48.994Z,36.78
2022-09-22T14:20:02.230Z,36.44
2022-09-22T14:26:14.392Z,32.91
2022-09-22T14:27:51.724Z,36.67
2022-09-22T14:28:55.170Z,37.18
2022-09-22T14:29:57.978Z,36.91
2022-09-22T14:30:59.365Z,37.88
2022-09-22T14:32:25.809Z,35.52
2022-09-22T14:33:33.503Z,36.59
2022-09-22T14:34:35.096Z,37.84
2022-09-22T14:35:37.264Z,38.15
2022-09-22T14:36:39.312Z,36.65
2022-09-22T14:37:45.376Z,37.77
2022-09-22T14:39:03.247Z,38.37
2022-09-22T14:40:18.984Z,38.02
2022-09-22T14:41:25.586Z,37.52
2022-09-22T14:42:29.510Z,36.30
2022-09-22T14:43:38.851Z,36.02
2022-09-22T14:44:49.901Z,35.34
2022-09-22T14:46:07.310Z,37.53
2022-09-22T14:47:25.895Z,36.28
2022-09-22T14:48:28.878Z,33.89
2022-09-22T14:55:03.808Z,34.43
2022-09-22T14:56:32.745Z,32.30
2022-09-22T14:57:35.707Z,32.10
2022-09-22T14:58:40.799Z,31.02
2022-09-22T15:00:06.416Z,34.72
2022-09-22T15:01:45.137Z,35.41
2022-09-22T15:02:53.930Z,34.94
2022-09-22T15:04:06.117Z,35.53
2022-09-22T15:05:11.757Z,35.67
2022-09-22T15:06:14.489Z,35.27
2022-09-22T15:13:05.143Z,33.08
2022-09-22T15:14:42.668Z,33.37
2022-09-22T15:15:46.538Z,33.64
2022-09-22T15:16:48.022Z,34.88
2022-09-22T15:18:15.132Z,36.14
2022-09-22T15:19:16.479Z,36.54
2022-09-22T15:20:18.462Z,35.67
2022-09-22T15:21:51.748Z,37.32
2022-09-22T15:22:54.116Z,36.88
2022-09-22T15:23:58.812Z,36.46
2022-09-22T15:25:00.193Z,37.86
2022-09-22T15:26:06.005Z,36.81
2022-09-22T15:27:08.020Z,37.16
2022-09-22T15:28:19.642Z,36.42
2022-09-22T15:29:21.038Z,36.28
2022-09-22T15:30:22.437Z,36.47
2022-09-22T15:31:26.904Z,37.60
2022-09-22T15:32:29.060Z,37.43
2022-09-22T15:33:30.762Z,36.37
2022-09-22T15:34:32.142Z,35.79
2022-09-22T15:35:37.857Z,34.97
2022-09-22T15:36:45.770Z,34.29
2022-09-22T15:37:49.987Z,33.66
2022-09-22T15:38:57.904Z,33.42
2022-09-22T15:40:00.567Z,35.72
2022-09-22T15:41:01.928Z,36.57
2022-09-22T15:42:06.373Z,37.09
2022-09-22T15:43:20.382Z,35.17
2022-09-22T15:44:26.017Z,34.88
2022-09-22T15:45:28.298Z,35.28
2022-09-22T15:46:37.751Z,35.69
2022-09-22T15:47:39.496Z,35.41
2022-09-22T15:48:40.837Z,36.85
2022-09-22T15:49:44.937Z,37.58
2022-09-22T15:50:46.468Z,38.38
2022-09-22T15:51:49.332Z,36.66
2022-09-22T15:52:50.732Z,36.40
2022-09-22T15:53:53.066Z,37.86
2022-09-22T15:54:55.153Z,38.04
2022-09-22T15:55:58.622Z,37.64
2022-09-22T15:57:00.457Z,37.36
2022-09-22T15:58:07.324Z,38.13
2022-09-22T15:59:16.224Z,38.67
2022-09-22T16:00:20.939Z,37.85
2022-09-22T16:01:22.336Z,37.87
2022-09-22T16:02:25.519Z,37.61
2022-09-22T16:03:27.484Z,38.81
2022-09-22T16:04:33.819Z,39.17
2022-09-22T16:05:35.973Z,39.43
2022-09-22T16:06:39.593Z,39.23
2022-09-22T16:07:44.960Z,39.72
2022-09-22T16:08:49.023Z,39.43
2022-09-22T16:09:54.128Z,39.31
2022-09-22T16:10:56.746Z,39.12
2022-09-22T16:11:58.104Z,39.37
2022-09-22T16:12:59.543Z,40.79
2022-09-22T16:14:03.586Z,40.49
2022-09-22T16:15:06.517Z,40.30
2022-09-22T16:16:09.351Z,40.66
2022-09-22T16:17:10.879Z,40.92
2022-09-22T16:18:12.214Z,40.43
2022-09-22T16:19:13.604Z,40.90
2022-09-22T16:20:16.860Z,40.48
2022-09-22T16:21:33.182Z,40.14
2022-09-22T16:22:35.794Z,40.04
2022-09-22T16:23:37.125Z,40.52
2022-09-22T16:24:38.594Z,40.72
2022-09-22T16:25:42.040Z,40.10
2022-09-22T16:26:43.422Z,39.94
2022-09-22T16:27:48.143Z,40.66
2022-09-22T16:28:49.593Z,40.71
2022-09-22T16:29:50.965Z,41.44
2022-09-22T16:30:52.306Z,42.16
2022-09-22T16:31:54.047Z,41.98
2022-09-22T16:32:55.782Z,41.86
2022-09-22T16:34:00.160Z,41.74
2022-09-22T16:35:03.185Z,41.95
2022-09-22T16:36:05.008Z,40.91
2022-09-22T16:37:06.401Z,39.96
2022-09-22T16:38:07.853Z,39.71
2022-09-22T16:39:09.297Z,40.27
2022-09-22T16:40:10.769Z,40.07
2022-09-22T16:41:24.594Z,41.46
2022-09-22T16:42:25.969Z,42.00
2022-09-22T16:43:27.374Z,40.99
2022-09-22T16:44:31.626Z,40.84
2022-09-22T16:45:51.680Z,41.56
2022-09-22T16:46:53.029Z,41.57
2022-09-22T16:47:54.713Z,42.29
2022-09-22T16:49:08.045Z,43.19
2022-09-22T16:50:10.131Z,44.01
2022-09-22T16:51:16.226Z,43.81
2022-09-22T16:52:20.186Z,43.16
2022-09-22T16:53:27.285Z,42.41
2022-09-22T16:54:28.689Z,43.35
2022-09-22T16:55:30.206Z,43.92
2022-09-22T16:56:33.818Z,44.34
2022-09-22T16:57:35.215Z,44.85
2022-09-22T16:58:36.691Z,44.33
2022-09-22T16:59:38.022Z,44.70
2022-09-22T17:00:39.390Z,44.10
2022-09-22T17:01:43.601Z,44.31
2022-09-22T17:02:46.692Z,43.43
2022-09-22T17:03:54.464Z,43.13
2022-09-22T17:04:55.888Z,43.11
2022-09-22T17:06:08.600Z,42.89
2022-09-22T17:07:10.182Z,42.76
2022-09-22T17:08:11.537Z,42.86
2022-09-22T17:09:14.462Z,43.50
2022-09-22T17:10:16.025Z,43.60
2022-09-22T17:11:17.933Z,44.05
2022-09-22T17:12:19.960Z,44.84
2022-09-22T17:13:30.933Z,44.82
2022-09-22T17:14:32.563Z,45.32
2022-09-22T17:15:35.745Z,45.12
2022-09-22T17:16:39.608Z,45.68
2022-09-22T17:17:41.130Z,45.75
2022-09-22T17:18:42.859Z,46.10
2022-09-22T17:19:48.155Z,46.21
2022-09-22T17:20:50.807Z,46.38
2022-09-22T17:21:55.225Z,46.85
2022-09-22T17:22:57.290Z,46.69
2022-09-22T17:24:01.917Z,47.01
2022-09-22T17:31:57.342Z,48.69
